Time;durP1;ratioP1;P1;durP2;ratioP2;P2;SDS_P1;SDS_P2;PMS_P1;PMS_P2;Temp;Humidity;BMP_temperature;BMP_pressure;BME280_temperature;BME280_humidity;BME280_pressure;Samples;Min_cycle;Max_cycle;Signal;HPM_P1;HPM_P2
2021/08/03 00:00:24;;;;;;;3.83;3.40;;;;;;;17.26;68.13;100981.25;5073036;28;20471;-66
2021/08/03 00:02:51;;;;;;;6.83;4.50;;;;;;;17.26;68.20;100983.88;5080267;28;20204;-66
2021/08/03 00:05:21;;;;;;;5.10;3.80;;;;;;;17.43;67.69;100981.88;5080537;28;20875;-66
2021/08/03 00:07:47;;;;;;;9.63;6.60;;;;;;;17.41;67.92;100988.06;5079663;28;20419;-66
2021/08/03 00:10:17;;;;;;;6.80;4.43;;;;;;;17.30;68.24;100986.44;5076236;28;20439;-66
2021/08/03 00:12:49;;;;;;;5.03;4.03;;;;;;;17.09;69.14;100990.25;5074547;28;20704;-66
2021/08/03 00:15:19;;;;;;;5.93;4.90;;;;;;;16.88;69.63;100986.09;5079210;28;20755;-67
2021/08/03 00:17:44;;;;;;;10.17;8.33;;;;;;;16.98;69.54;100995.66;5086914;28;20460;-67
2021/08/03 00:20:10;;;;;;;7.50;4.90;;;;;;;16.70;69.48;101000.38;5068819;28;20437;-67
2021/08/03 00:22:36;;;;;;;5.27;3.87;;;;;;;16.53;70.25;100997.91;5059750;28;20226;-66
2021/08/03 00:25:02;;;;;;;5.50;4.93;;;;;;;17.02;68.70;100995.63;5059855;28;20202;-66
2021/08/03 00:27:27;;;;;;;3.43;3.13;;;;;;;16.82;68.78;100997.59;5060455;28;20394;-67
2021/08/03 00:29:53;;;;;;;4.70;4.10;;;;;;;16.93;68.46;100994.84;5068878;28;20576;-67
2021/08/03 00:32:18;;;;;;;5.40;4.50;;;;;;;16.82;68.83;100999.34;5078140;28;20188;-66
2021/08/03 00:34:43;;;;;;;4.10;3.70;;;;;;;17.20;67.29;100991.88;5080192;28;20539;-67
2021/08/03 00:37:09;;;;;;;10.57;6.93;;;;;;;17.16;67.17;100989.28;5075853;28;20500;-65
2021/08/03 00:39:36;;;;;;;4.70;4.03;;;;;;;16.84;68.25;100994.94;5061510;28;20219;-66
2021/08/03 00:42:03;;;;;;;5.10;4.60;;;;;;;16.99;67.92;100999.16;5069743;28;20422;-66
2021/08/03 00:44:42;;;;;;;6.27;4.00;;;;;;;17.11;67.61;101003.41;5059965;28;20486;-67
2021/08/03 00:47:08;;;;;;;5.10;4.17;;;;;;;16.74;68.93;101009.13;5079499;28;20464;-66
2021/08/03 00:49:34;;;;;;;8.67;3.87;;;;;;;16.96;68.06;101004.47;5068840;28;20843;-66
2021/08/03 00:51:59;;;;;;;5.90;4.73;;;;;;;17.12;67.83;101010.44;5059438;28;20510;-66
2021/08/03 00:54:24;;;;;;;5.80;4.07;;;;;;;16.84;68.07;101011.63;5059801;28;20222;-66
2021/08/03 00:56:50;;;;;;;4.30;3.90;;;;;;;16.37;69.40;101010.34;5059274;28;20242;-66
2021/08/03 00:59:15;;;;;;;5.77;3.93;;;;;;;16.22;70.12;101006.13;5066223;28;20197;-66
2021/08/03 01:01:40;;;;;;;5.60;3.83;;;;;;;16.46;69.56;101002.38;5079565;28;20169;-66
2021/08/03 01:04:09;;;;;;;4.30;3.70;;;;;;;16.53;68.95;101002.31;5079081;28;20201;-65
2021/08/03 01:07:06;;;;;;;6.07;4.40;;;;;;;16.41;69.12;100998.94;5079075;28;20168;-66
2021/08/03 01:09:59;;;;;;;6.10;3.90;;;;;;;16.17;70.16;101002.69;5071015;28;20581;-66
2021/08/03 01:12:37;;;;;;;6.90;4.30;;;;;;;16.35;69.67;100999.00;5059611;28;20416;-66
2021/08/03 01:15:16;;;;;;;9.80;4.40;;;;;;;16.23;70.00;100999.13;5058948;28;20437;-66
2021/08/03 01:17:49;;;;;;;4.73;4.10;;;;;;;16.42;69.59;101002.44;5059138;28;20390;-65
2021/08/03 01:20:33;;;;;;;4.60;4.20;;;;;;;16.49;68.99;101002.34;5068461;28;20872;-67
2021/08/03 01:23:52;;;;;;;5.00;4.50;;;;;;;16.20;69.54;101010.53;5058036;28;20478;-67
2021/08/03 01:26:38;;;;;;;5.23;4.53;;;;;;;16.63;68.84;101006.59;5040774;28;20432;-67
2021/08/03 01:29:06;;;;;;;4.87;4.37;;;;;;;16.45;69.41;101007.66;5059500;28;20414;-66
2021/08/03 01:31:34;;;;;;;5.57;4.63;;;;;;;16.35;70.03;101004.25;5078750;28;20419;-66
2021/08/03 01:34:12;;;;;;;6.50;4.60;;;;;;;16.14;70.65;100994.78;5078582;28;20415;-66
2021/08/03 01:36:40;;;;;;;7.93;4.73;;;;;;;16.56;69.10;101000.53;5067181;28;20432;-65
2021/08/03 01:39:06;;;;;;;5.10;4.57;;;;;;;16.53;69.12;101002.31;5060363;28;20442;-66
2021/08/03 01:41:32;;;;;;;7.20;5.00;;;;;;;16.52;69.60;101000.56;5058351;28;20407;-66
2021/08/03 01:43:58;;;;;;;5.63;5.03;;;;;;;16.63;68.71;101006.59;5057758;28;20447;-66
2021/08/03 01:46:24;;;;;;;4.73;4.33;;;;;;;16.41;69.77;101003.31;5072699;28;20446;-66
2021/08/03 01:48:50;;;;;;;6.97;4.90;;;;;;;16.29;70.21;101005.19;5075228;28;20164;-67
2021/08/03 01:51:15;;;;;;;5.47;4.77;;;;;;;15.98;71.21;101005.47;5058881;28;20836;-66
2021/08/03 01:53:43;;;;;;;6.33;5.13;;;;;;;16.50;69.67;101004.09;5057767;28;21548;-66
2021/08/03 01:56:09;;;;;;;5.23;4.73;;;;;;;16.24;70.24;100995.59;5058314;28;20172;-67
2021/08/03 01:58:36;;;;;;;8.10;5.57;;;;;;;16.21;70.41;101008.75;5041027;28;20889;-69
2021/08/03 02:01:03;;;;;;;6.53;5.33;;;;;;;16.00;71.01;101013.34;5060197;28;20189;-66
2021/08/03 02:03:29;;;;;;;8.70;6.10;;;;;;;16.35;69.64;101009.50;5058135;28;20717;-67
2021/08/03 02:05:55;;;;;;;12.53;5.27;;;;;;;16.20;69.85;101012.31;5058245;28;20421;-67
2021/08/03 02:08:21;;;;;;;10.53;5.30;;;;;;;15.96;70.87;101009.00;5058133;28;20165;-67
2021/08/03 02:10:47;;;;;;;8.13;5.80;;;;;;;16.25;70.04;101007.84;5064760;28;20177;-67
2021/08/03 02:13:14;;;;;;;6.30;5.33;;;;;;;16.16;70.58;101014.09;5077248;28;20447;-66
2021/08/03 02:15:40;;;;;;;8.13;5.83;;;;;;;16.11;70.42;101021.13;5077565;28;20469;-67
2021/08/03 02:18:05;;;;;;;7.27;5.07;;;;;;;16.06;70.45;101022.94;5078402;28;20370;-66
2021/08/03 02:20:31;;;;;;;6.63;5.43;;;;;;;16.38;69.85;101014.75;5062201;28;20520;-67
2021/08/03 02:22:56;;;;;;;8.60;5.80;;;;;;;16.15;70.87;101017.59;5065548;28;20229;-67
2021/08/03 02:25:22;;;;;;;6.57;5.60;;;;;;;16.14;70.29;101014.09;5058088;28;20245;-67
2021/08/03 02:27:47;;;;;;;7.80;5.90;;;;;;;16.30;70.07;101027.09;5058303;28;20595;-67
2021/08/03 02:30:13;;;;;;;5.77;5.17;;;;;;;16.27;70.20;101030.63;5059734;28;20173;-69
2021/08/03 02:32:44;;;;;;;7.43;5.80;;;;;;;15.78;71.92;101026.63;5058124;28;20174;-67
2021/08/03 02:35:16;;;;;;;6.27;5.67;;;;;;;15.82;71.47;101024.88;5057061;28;20443;-67
2021/08/03 02:37:47;;;;;;;6.13;5.37;;;;;;;16.04;70.70;101028.22;5057179;28;20527;-70
2021/08/03 02:40:13;;;;;;;6.47;5.40;;;;;;;15.80;71.55;101016.13;5058200;28;20682;-67
2021/08/03 02:42:39;;;;;;;6.20;4.90;;;;;;;16.14;70.99;101022.00;5057154;28;20415;-68
2021/08/03 02:45:05;;;;;;;7.40;5.20;;;;;;;16.19;70.63;101021.06;5058026;28;20186;-67
2021/08/03 02:47:54;;;;;;;5.70;5.10;;;;;;;16.45;69.64;101015.53;5057221;28;20208;-68
2021/08/03 02:50:23;;;;;;;8.23;5.50;;;;;;;15.87;71.45;101024.84;5060064;28;20783;-68
2021/08/03 02:52:52;;;;;;;5.53;5.03;;;;;;;16.11;70.74;101027.25;5060873;28;20693;-68
2021/08/03 02:55:28;;;;;;;5.73;4.80;;;;;;;16.13;71.00;101014.97;5083716;28;20435;-67
2021/08/03 02:57:56;;;;;;;5.53;5.03;;;;;;;16.17;70.84;101018.47;5055393;28;20463;-67
2021/08/03 03:00:21;;;;;;;9.37;6.17;;;;;;;16.13;70.54;101020.25;5056593;28;20501;-68
2021/08/03 03:02:47;;;;;;;8.50;5.23;;;;;;;16.19;70.71;101021.06;5070835;28;20420;-68
2021/08/03 03:05:23;;;;;;;5.53;5.03;;;;;;;16.23;70.20;101017.53;5080722;28;20193;-67
2021/08/03 03:07:52;;;;;;;5.60;5.10;;;;;;;16.14;70.55;101019.38;5072751;28;20179;-69
2021/08/03 03:10:21;;;;;;;5.70;5.20;;;;;;;16.09;70.65;101023.78;5071397;28;20428;-69
2021/08/03 03:12:51;;;;;;;5.90;5.20;;;;;;;15.98;70.90;101021.25;5077088;28;20525;-69
2021/08/03 03:15:17;;;;;;;5.80;5.30;;;;;;;16.07;70.98;101014.16;5075403;28;20398;-68
2021/08/03 03:17:44;;;;;;;7.50;5.13;;;;;;;16.31;69.82;101013.94;5061275;28;20424;-69
2021/08/03 03:20:10;;;;;;;6.67;5.07;;;;;;;16.43;69.45;101009.44;5061684;28;20826;-67
2021/08/03 03:22:38;;;;;;;5.60;5.00;;;;;;;16.50;69.33;101019.88;5060251;28;20460;-67
2021/08/03 03:25:04;;;;;;;6.63;5.93;;;;;;;16.27;69.39;101014.84;5060971;28;20228;-69
2021/08/03 03:27:30;;;;;;;6.53;5.40;;;;;;;15.80;71.12;101014.38;5065294;28;20438;-67
2021/08/03 03:29:57;;;;;;;5.57;5.00;;;;;;;16.14;71.13;101015.84;5061575;28;20398;-68
2021/08/03 03:32:23;;;;;;;5.40;4.90;;;;;;;16.23;71.04;101009.63;5060480;28;20518;-68
2021/08/03 03:34:49;;;;;;;6.50;5.30;;;;;;;16.67;69.47;101014.44;5060660;28;20446;-68
2021/08/03 03:37:14;;;;;;;6.10;5.50;;;;;;;16.55;69.09;101011.94;5062355;28;20464;-67
2021/08/03 03:39:40;;;;;;;7.73;5.40;;;;;;;16.58;69.29;101013.69;5061337;28;20185;-68
2021/08/03 03:42:07;;;;;;;6.30;5.23;;;;;;;16.54;69.56;101014.59;5060726;28;20559;-68
2021/08/03 03:44:32;;;;;;;6.00;5.50;;;;;;;16.39;70.10;101010.38;5062126;28;20425;-68
2021/08/03 03:47:01;;;;;;;6.30;4.90;;;;;;;16.88;68.37;101008.94;5076796;28;20853;-68
2021/08/03 03:49:32;;;;;;;6.43;5.00;;;;;;;16.37;70.28;101018.25;5081088;28;20498;-68
2021/08/03 03:52:00;;;;;;;6.40;5.33;;;;;;;16.70;69.55;101016.16;5080112;28;20809;-69
2021/08/03 03:54:27;;;;;;;10.60;5.50;;;;;;;16.49;70.33;101018.16;5079969;28;20438;-68
2021/08/03 03:57:03;;;;;;;5.80;5.27;;;;;;;16.61;70.21;101026.78;5074310;28;20402;-69
2021/08/03 03:59:29;;;;;;;6.60;5.20;;;;;;;16.49;71.08;101015.53;5060730;28;20803;-69
2021/08/03 04:01:57;;;;;;;6.63;5.47;;;;;;;16.71;70.17;101024.94;5075405;28;20466;-68
2021/08/03 04:04:24;;;;;;;6.10;5.20;;;;;;;16.32;71.87;101026.19;5080498;28;20223;-68
2021/08/03 04:06:49;;;;;;;9.90;6.20;;;;;;;16.62;70.81;101025.91;5074196;28;20704;-68
2021/08/03 04:09:21;;;;;;;7.20;5.50;;;;;;;16.88;70.45;101032.63;5060811;28;20514;-68
2021/08/03 04:11:48;;;;;;;5.73;5.13;;;;;;;16.83;70.68;101038.84;5064231;28;20173;-68
2021/08/03 04:14:19;;;;;;;6.37;5.77;;;;;;;16.81;70.66;101035.34;5067465;28;20439;-68
2021/08/03 04:16:45;;;;;;;5.73;5.13;;;;;;;16.56;71.21;101032.13;5059361;28;20412;-68
2021/08/03 04:19:10;;;;;;;6.73;5.17;;;;;;;16.40;71.61;101027.88;5062013;28;20414;-68
2021/08/03 04:21:35;;;;;;;5.10;4.60;;;;;;;16.37;71.91;101034.03;5060640;28;20227;-68
2021/08/03 04:24:00;;;;;;;5.50;3.87;;;;;;;16.60;71.34;101040.84;5067439;28;20240;-68
2021/08/03 04:26:26;;;;;;;4.77;4.03;;;;;;;16.67;70.56;101042.53;5082626;28;21280;-69
2021/08/03 04:28:51;;;;;;;4.40;4.00;;;;;;;16.51;71.68;101039.19;5070957;28;20450;-69
2021/08/03 04:31:16;;;;;;;4.43;4.03;;;;;;;16.68;69.93;101044.25;5063483;28;20185;-67
2021/08/03 04:33:42;;;;;;;3.60;3.23;;;;;;;16.47;70.81;101051.50;5074155;28;20176;-67
2021/08/03 04:36:07;;;;;;;4.33;3.67;;;;;;;16.62;71.04;101057.50;5078918;28;20165;-67
2021/08/03 04:38:32;;;;;;;4.60;4.20;;;;;;;16.68;70.63;101054.78;5060943;28;20286;-68
2021/08/03 04:40:57;;;;;;;4.70;4.30;;;;;;;16.61;71.58;101055.75;5063407;28;20185;-69
2021/08/03 04:43:23;;;;;;;4.93;4.00;;;;;;;16.39;72.62;101055.97;5078620;28;20306;-67
2021/08/03 04:45:48;;;;;;;5.87;4.37;;;;;;;16.64;71.73;101050.44;5079765;28;20570;-70
2021/08/03 04:48:14;;;;;;;4.53;4.13;;;;;;;16.45;72.13;101052.38;5079668;28;20200;-68
2021/08/03 04:50:40;;;;;;;4.37;3.97;;;;;;;16.69;72.06;101048.63;5080117;28;20165;-69
2021/08/03 04:53:05;;;;;;;6.77;4.37;;;;;;;16.91;70.58;101051.06;5079409;28;20160;-68
2021/08/03 04:55:30;;;;;;;4.23;3.80;;;;;;;16.78;70.38;101052.94;5079669;28;20180;-69
2021/08/03 04:57:56;;;;;;;5.07;3.80;;;;;;;17.09;68.81;101056.13;5078912;28;20165;-70
2021/08/03 05:00:21;;;;;;;4.13;3.80;;;;;;;17.06;68.99;101052.63;5059413;28;20174;-68
2021/08/03 05:02:46;;;;;;;4.50;4.10;;;;;;;17.39;68.33;101040.78;5080496;28;20172;-68
2021/08/03 05:05:13;;;;;;;4.57;4.17;;;;;;;16.64;69.98;101038.16;5081673;28;20200;-68
2021/08/03 05:07:39;;;;;;;5.93;4.27;;;;;;;17.02;69.26;101043.03;5058546;28;20161;-68
2021/08/03 05:10:10;;;;;;;4.90;4.50;;;;;;;16.56;71.12;101047.03;5059688;28;20504;-69
2021/08/03 05:12:36;;;;;;;4.70;4.30;;;;;;;17.30;68.55;101036.50;5059676;28;20243;-68
2021/08/03 05:15:01;;;;;;;5.80;5.00;;;;;;;17.44;68.21;101033.72;5059146;28;20439;-69
2021/08/03 05:17:30;;;;;;;4.40;4.00;;;;;;;17.25;68.62;101032.19;5059987;28;20440;-67
2021/08/03 05:19:55;;;;;;;5.10;4.20;;;;;;;16.54;70.75;101036.50;5076115;28;20464;-68
2021/08/03 05:22:20;;;;;;;6.23;4.60;;;;;;;17.12;69.30;101035.00;5099084;28;20454;-68
2021/08/03 05:24:48;;;;;;;4.40;4.00;;;;;;;17.31;67.38;101037.41;5074183;28;20213;-69
2021/08/03 05:27:14;;;;;;;4.77;4.37;;;;;;;17.63;66.80;101038.69;5059156;28;20261;-69
2021/08/03 05:29:39;;;;;;;5.70;4.27;;;;;;;17.68;66.78;101042.13;5061036;28;20494;-69
2021/08/03 05:32:04;;;;;;;4.00;3.70;;;;;;;17.20;67.86;101036.66;5058916;28;20547;-68
2021/08/03 05:34:30;;;;;;;8.40;6.00;;;;;;;17.50;65.90;101041.50;5090451;28;20176;-68
2021/08/03 05:36:55;;;;;;;4.40;4.00;;;;;;;17.65;67.05;101036.91;5089324;28;20253;-68
2021/08/03 05:39:21;;;;;;;4.60;4.20;;;;;;;18.21;64.68;101034.28;5072832;28;20486;-68
2021/08/03 05:41:46;;;;;;;4.27;3.87;;;;;;;18.28;64.16;101035.03;5070638;28;20191;-68
2021/08/03 05:44:11;;;;;;;4.97;4.50;;;;;;;18.23;64.03;101034.28;5077767;28;20673;-68
2021/08/03 05:46:36;;;;;;;4.30;3.90;;;;;;;18.29;63.07;101039.41;5078332;28;20164;-68
2021/08/03 05:49:02;;;;;;;4.20;3.83;;;;;;;18.27;63.28;101033.31;5078927;28;20434;-68
2021/08/03 05:51:28;;;;;;;4.90;4.40;;;;;;;18.16;62.57;101041.41;5072158;28;20177;-69
2021/08/03 05:53:53;;;;;;;4.20;3.80;;;;;;;18.49;61.55;101042.56;5059912;28;20178;-68
2021/08/03 05:56:18;;;;;;;4.30;4.00;;;;;;;18.31;62.46;101046.41;5058853;28;20153;-69
2021/08/03 05:58:44;;;;;;;4.60;4.20;;;;;;;18.73;60.92;101043.00;5058342;28;20223;-69
2021/08/03 06:01:09;;;;;;;4.43;4.03;;;;;;;18.78;60.64;101042.91;5082005;28;20207;-68
2021/08/03 06:03:34;;;;;;;5.33;4.60;;;;;;;18.51;61.72;101042.56;5095262;28;20193;-68
2021/08/03 06:06:00;;;;;;;5.07;3.90;;;;;;;18.54;62.05;101047.78;5070280;28;20227;-68
2021/08/03 06:08:28;;;;;;;4.87;4.47;;;;;;;18.49;61.82;101039.94;5070186;28;20453;-68
2021/08/03 06:10:54;;;;;;;4.87;4.40;;;;;;;18.04;64.25;101044.28;5069550;28;20176;-69
2021/08/03 06:13:25;;;;;;;6.53;4.73;;;;;;;18.66;62.45;101041.41;5070333;28;20448;-68
2021/08/03 06:15:51;;;;;;;4.83;4.40;;;;;;;18.55;63.08;101032.78;5097341;28;20187;-68
2021/08/03 06:18:29;;;;;;;4.40;3.97;;;;;;;18.89;61.30;101035.69;5086905;28;20415;-68
2021/08/03 06:20:55;;;;;;;7.00;4.40;;;;;;;18.46;62.18;101040.00;5070670;28;20518;-68
2021/08/03 06:23:22;;;;;;;5.13;4.00;;;;;;;18.83;60.10;101039.31;5062612;28;20868;-68
2021/08/03 06:25:47;;;;;;;4.60;4.20;;;;;;;19.11;58.59;101038.75;5065400;28;20483;-68
2021/08/03 06:28:15;;;;;;;5.23;3.90;;;;;;;17.92;64.14;101037.41;5088413;28;20427;-69
2021/08/03 06:30:41;;;;;;;5.63;4.40;;;;;;;18.62;62.16;101039.72;5078082;28;20284;-69
2021/08/03 06:33:07;;;;;;;6.70;5.57;;;;;;;18.47;63.41;101036.47;5075123;28;20689;-68
2021/08/03 06:35:32;;;;;;;6.50;4.50;;;;;;;19.14;61.08;101049.25;5064697;28;20422;-68
2021/08/03 06:37:58;;;;;;;7.17;4.60;;;;;;;19.06;59.90;101051.19;5071302;28;20195;-68
2021/08/03 06:40:23;;;;;;;5.03;4.50;;;;;;;19.42;59.32;101050.44;5075981;28;20395;-70
2021/08/03 06:43:02;;;;;;;4.73;4.27;;;;;;;18.85;61.48;101053.34;5078479;28;20248;-68
2021/08/03 06:45:29;;;;;;;5.10;4.60;;;;;;;20.06;56.98;101040.13;5063775;28;20203;-69
2021/08/03 06:48:02;;;;;;;5.23;4.60;;;;;;;20.33;56.76;101049.13;5068443;28;22171;-69
2021/08/03 06:50:36;;;;;;;5.80;4.43;;;;;;;19.79;58.50;101046.94;5062572;28;20458;-68
2021/08/03 06:53:05;;;;;;;6.37;5.70;;;;;;;20.52;56.73;101043.38;5063865;28;20439;-69
2021/08/03 06:55:32;;;;;;;5.70;5.10;;;;;;;20.30;56.44;101048.38;5057097;28;20932;-70
2021/08/03 06:58:05;;;;;;;5.90;5.30;;;;;;;19.72;57.20;101051.50;5069055;28;20855;-70
2021/08/03 07:00:35;;;;;;;9.30;4.90;;;;;;;20.46;56.19;101048.84;5070341;28;20455;-68
2021/08/03 07:03:01;;;;;;;7.03;5.40;;;;;;;20.49;55.68;101049.63;5057265;28;20423;-69
2021/08/03 07:05:28;;;;;;;6.13;5.20;;;;;;;20.55;55.28;101047.72;5057478;28;20451;-72
2021/08/03 07:07:56;;;;;;;6.50;5.53;;;;;;;20.99;54.38;101049.16;5057844;28;20442;-69
2021/08/03 07:10:22;;;;;;;5.90;4.70;;;;;;;20.57;54.60;101053.84;5060491;28;20448;-69
2021/08/03 07:12:48;;;;;;;4.20;3.90;;;;;;;20.55;54.92;101053.00;5070640;28;20466;-69
2021/08/03 07:15:13;;;;;;;3.93;3.60;;;;;;;20.86;55.35;101058.34;5076562;28;20557;-70
2021/08/03 07:17:42;;;;;;;5.60;3.90;;;;;;;20.96;55.40;101058.97;5085717;28;20410;-69
2021/08/03 07:20:11;;;;;;;4.37;3.60;;;;;;;21.13;52.06;101059.34;5077836;28;20268;-70
2021/08/03 07:22:38;;;;;;;4.77;3.37;;;;;;;21.36;50.93;101055.13;5077174;28;20466;-70
2021/08/03 07:25:05;;;;;;;5.30;3.67;;;;;;;21.53;50.82;101060.84;5076866;28;20768;-69
2021/08/03 07:27:30;;;;;;;4.40;3.20;;;;;;;22.01;49.08;101059.31;5073789;28;20507;-70
2021/08/03 07:29:55;;;;;;;4.53;3.07;;;;;;;22.44;48.04;101054.34;5056913;28;20484;-69
2021/08/03 07:32:21;;;;;;;3.13;2.83;;;;;;;22.10;50.35;101058.13;5057179;28;20173;-68
2021/08/03 07:34:46;;;;;;;5.27;3.57;;;;;;;21.95;51.13;101061.31;5072998;28;20184;-69
2021/08/03 07:37:12;;;;;;;5.87;3.40;;;;;;;22.14;49.31;101065.06;5070847;28;20210;-69
2021/08/03 07:39:39;;;;;;;3.50;3.00;;;;;;;22.35;49.19;101059.97;5070819;28;20475;-69
2021/08/03 07:42:05;;;;;;;3.77;3.37;;;;;;;22.82;48.30;101053.91;5065841;28;20184;-68
2021/08/03 07:44:30;;;;;;;6.10;2.97;;;;;;;22.86;47.42;101056.38;5076789;28;20466;-68
2021/08/03 07:46:55;;;;;;;5.17;4.77;;;;;;;22.81;46.63;101060.16;5070954;28;20449;-68
2021/08/03 07:49:21;;;;;;;3.50;2.93;;;;;;;23.44;43.62;101060.47;5065364;28;20181;-68
2021/08/03 07:51:47;;;;;;;3.27;2.97;;;;;;;23.24;44.42;101061.22;5064756;28;20177;-69
2021/08/03 07:54:12;;;;;;;5.30;2.87;;;;;;;23.71;42.75;101055.84;5080366;28;20180;-68
2021/08/03 07:56:38;;;;;;;2.80;2.60;;;;;;;22.94;44.13;101052.59;5079436;28;20458;-68
2021/08/03 07:59:03;;;;;;;2.60;2.40;;;;;;;22.77;44.03;101051.44;5066229;28;20555;-69
2021/08/03 08:01:28;;;;;;;4.23;3.10;;;;;;;22.56;46.22;101049.56;5069213;28;20211;-68
2021/08/03 08:03:54;;;;;;;4.37;2.90;;;;;;;22.53;46.68;101053.19;5068751;28;20196;-67
2021/08/03 08:06:19;;;;;;;6.63;3.93;;;;;;;26.17;39.81;101047.50;5060028;28;20460;-69
2021/08/03 08:08:44;;;;;;;5.50;2.83;;;;;;;25.49;40.72;101042.81;5060717;28;20216;-69
2021/08/03 08:11:10;;;;;;;2.57;2.37;;;;;;;25.00;41.53;101042.41;5071065;28;20181;-68
2021/08/03 08:13:36;;;;;;;4.73;3.30;;;;;;;25.01;42.16;101045.00;5077497;28;20180;-68
2021/08/03 08:16:01;;;;;;;2.87;2.27;;;;;;;23.81;43.54;101053.66;5074979;28;20192;-68
2021/08/03 08:18:27;;;;;;;3.07;2.77;;;;;;;23.92;44.39;101039.06;5083458;28;20188;-67
2021/08/03 08:20:52;;;;;;;2.90;2.50;;;;;;;23.24;45.76;101049.75;5073790;28;20181;-68
2021/08/03 08:23:17;;;;;;;3.17;2.87;;;;;;;24.08;43.14;101042.81;5068071;28;20240;-67
2021/08/03 08:25:43;;;;;;;2.90;2.60;;;;;;;23.87;42.50;101033.94;5061171;28;20193;-67
2021/08/03 08:28:09;;;;;;;4.33;3.47;;;;;;;24.37;41.30;101038.06;5072016;28;20185;-67
2021/08/03 08:30:36;;;;;;;5.60;3.40;;;;;;;24.91;40.56;101037.50;5067792;28;20182;-67
2021/08/03 08:33:02;;;;;;;3.30;2.50;;;;;;;25.40;39.96;101027.22;5068447;28;20415;-67
2021/08/03 08:35:27;;;;;;;3.17;2.60;;;;;;;25.08;40.30;101040.25;5079194;28;20504;-68
2021/08/03 08:37:53;;;;;;;3.23;2.50;;;;;;;25.85;37.98;101028.56;5063105;28;20530;-67
2021/08/03 08:40:18;;;;;;;2.90;2.50;;;;;;;26.09;38.02;101025.66;5065684;28;20196;-67
2021/08/03 08:42:46;;;;;;;2.97;2.70;;;;;;;26.14;36.65;101026.28;5059899;28;20182;-67
2021/08/03 08:45:12;;;;;;;2.87;2.13;;;;;;;26.27;36.70;101026.50;5078060;28;20448;-67
2021/08/03 08:47:41;;;;;;;3.30;2.33;;;;;;;27.44;36.06;101018.50;5065777;28;20446;-67
2021/08/03 08:50:07;;;;;;;2.40;2.20;;;;;;;27.00;35.42;101028.03;5059055;28;20412;-67
2021/08/03 08:52:34;;;;;;;39.27;6.53;;;;;;;27.16;35.42;101025.38;5058908;28;20419;-67
2021/08/03 08:55:00;;;;;;;4.07;2.23;;;;;;;26.94;35.62;101025.69;5059979;28;20506;-67
2021/08/03 08:57:25;;;;;;;2.87;2.67;;;;;;;27.43;36.04;101023.00;5066906;28;20691;-68
2021/08/03 08:59:50;;;;;;;13.10;3.93;;;;;;;26.52;36.19;101022.53;5079052;28;20457;-66
2021/08/03 09:02:16;;;;;;;3.70;2.50;;;;;;;25.54;36.57;101029.22;5079458;28;20252;-67
2021/08/03 09:04:43;;;;;;;4.10;2.37;;;;;;;26.18;36.83;101024.28;5078831;28;20228;-67
2021/08/03 09:07:09;;;;;;;3.00;2.40;;;;;;;26.09;35.70;101020.31;5065063;28;20447;-67
2021/08/03 09:09:45;;;;;;;3.97;2.73;;;;;;;25.70;36.25;101016.00;5060825;28;20477;-68
2021/08/03 09:12:12;;;;;;;3.90;2.37;;;;;;;25.74;36.34;101016.72;5072431;28;20442;-67
2021/08/03 09:14:42;;;;;;;2.40;2.20;;;;;;;25.84;35.91;101015.28;5076745;28;20540;-69
2021/08/03 09:17:08;;;;;;;49.97;4.80;;;;;;;26.76;33.68;101008.84;5079327;28;20847;-68
2021/08/03 09:19:37;;;;;;;5.43;2.63;;;;;;;26.78;34.36;100997.09;5080991;28;20463;-68
2021/08/03 09:22:28;;;;;;;6.80;2.53;;;;;;;25.83;34.90;101013.56;5069066;28;20196;-71
2021/08/03 09:25:15;;;;;;;4.07;2.40;;;;;;;27.20;32.69;101003.69;5056851;28;20511;-70
2021/08/03 09:27:43;;;;;;;5.27;2.40;;;;;;;26.63;34.15;101005.91;5070083;28;20684;-71
2021/08/03 09:30:26;;;;;;;3.20;2.30;;;;;;;25.29;35.35;101006.34;5068221;28;20860;-67
2021/08/03 09:32:52;;;;;;;2.80;2.30;;;;;;;26.01;34.64;101009.09;5058080;28;20864;-68
2021/08/03 09:35:19;;;;;;;2.20;2.00;;;;;;;27.19;33.52;101003.78;5058656;28;20419;-67
2021/08/03 09:37:44;;;;;;;3.70;2.57;;;;;;;26.45;34.39;101003.28;5068189;28;20212;-68
2021/08/03 09:40:32;;;;;;;1.97;1.80;;;;;;;27.51;32.54;101007.34;5078649;28;20439;-68
2021/08/03 09:43:01;;;;;;;3.07;2.47;;;;;;;26.50;34.32;101005.72;5078202;28;20164;-67
2021/08/03 09:45:28;;;;;;;5.03;3.20;;;;;;;26.60;34.75;101006.09;5077826;28;20470;-68
2021/08/03 09:48:06;;;;;;;6.13;3.37;;;;;;;27.23;33.17;101000.84;5058762;28;20446;-68
2021/08/03 09:50:32;;;;;;;3.60;2.00;;;;;;;27.72;31.89;100993.66;5065114;28;20467;-67
2021/08/03 09:52:57;;;;;;;4.37;3.27;;;;;;;27.77;32.65;100993.41;5058354;28;20717;-67
2021/08/03 09:55:22;;;;;;;7.00;3.53;;;;;;;27.69;31.96;100991.16;5058114;28;20268;-67
2021/08/03 09:57:48;;;;;;;4.97;3.10;;;;;;;28.38;31.04;100988.88;5077605;28;20181;-67
2021/08/03 10:00:28;;;;;;;4.20;2.80;;;;;;;27.17;32.33;100987.81;5069537;28;20186;-68
2021/08/03 10:02:54;;;;;;;7.77;3.73;;;;;;;28.98;30.29;100978.91;5058064;28;20456;-67
2021/08/03 10:05:20;;;;;;;8.27;3.60;;;;;;;30.09;27.83;100976.97;5061707;28;20467;-67
2021/08/03 10:07:46;;;;;;;4.03;2.77;;;;;;;29.08;29.59;100982.72;5073136;28;20185;-69
2021/08/03 10:10:13;;;;;;;2.93;2.67;;;;;;;28.13;31.01;100985.00;5069989;28;20423;-67
2021/08/03 10:12:39;;;;;;;2.80;2.53;;;;;;;28.10;30.98;100974.44;5067610;28;20196;-68
2021/08/03 10:15:05;;;;;;;6.17;3.40;;;;;;;27.91;31.96;100985.38;5077990;28;20465;-67
2021/08/03 10:17:30;;;;;;;3.97;2.83;;;;;;;26.67;33.52;100984.28;5083181;28;20188;-68
2021/08/03 10:19:59;;;;;;;5.60;3.33;;;;;;;28.24;31.00;100970.94;5071551;28;20447;-68
2021/08/03 10:22:27;;;;;;;3.80;2.80;;;;;;;27.52;32.34;100981.41;5056571;28;20316;-69
2021/08/03 10:25:06;;;;;;;3.17;2.87;;;;;;;28.51;30.48;100979.09;5057629;28;20475;-68
2021/08/03 10:27:57;;;;;;;9.00;4.13;;;;;;;28.67;31.10;100975.47;5057886;28;20420;-68
2021/08/03 10:30:29;;;;;;;6.37;3.57;;;;;;;28.77;30.13;100976.63;5058547;28;20459;-68
2021/08/03 10:33:10;;;;;;;4.53;2.50;;;;;;;28.20;30.75;100964.91;5057444;28;20768;-66
2021/08/03 10:35:49;;;;;;;3.07;2.57;;;;;;;27.56;31.81;100977.59;5057870;28;20821;-67
2021/08/03 10:38:33;;;;;;;2.67;2.43;;;;;;;28.11;31.26;100972.66;5061249;28;20452;-67
2021/08/03 10:41:05;;;;;;;4.03;2.07;;;;;;;28.81;29.27;100972.78;5057833;28;20538;-66
2021/08/03 10:43:33;;;;;;;5.87;3.93;;;;;;;28.20;30.41;100970.28;5057472;28;20428;-67
2021/08/03 10:46:07;;;;;;;26.70;4.13;;;;;;;28.54;30.34;100973.53;5057542;28;20502;-68
2021/08/03 10:48:38;;;;;;;7.23;2.60;;;;;;;27.73;32.24;100968.59;5057291;28;20530;-67
2021/08/03 10:51:12;;;;;;;9.23;2.90;;;;;;;26.78;32.14;100970.34;5057570;28;20436;-67
2021/08/03 10:54:11;;;;;;;2.60;2.40;;;;;;;25.60;33.79;100971.97;5056750;28;20469;-68
2021/08/03 10:56:53;;;;;;;2.30;2.10;;;;;;;26.48;32.88;100968.38;5057515;28;20784;-68
2021/08/03 10:59:30;;;;;;;2.70;2.40;;;;;;;25.80;33.57;100973.66;5057623;28;20447;-68
2021/08/03 11:01:55;;;;;;;2.83;2.30;;;;;;;25.76;34.01;100966.75;5058683;28;20436;-67
2021/08/03 11:04:42;;;;;;;2.80;2.00;;;;;;;26.23;32.78;100966.97;5057306;28;20464;-67
2021/08/03 11:07:26;;;;;;;2.80;2.60;;;;;;;27.29;31.54;100966.66;5075270;28;20196;-67
2021/08/03 11:10:02;;;;;;;3.33;2.50;;;;;;;26.73;32.53;100959.03;5074264;28;20501;-68
2021/08/03 11:12:36;;;;;;;3.60;2.70;;;;;;;27.47;30.93;100964.75;5057370;28;20428;-70
2021/08/03 11:15:26;;;;;;;2.20;2.00;;;;;;;27.15;30.41;100954.06;5060709;28;20778;-70
2021/08/03 11:17:53;;;;;;;2.50;2.27;;;;;;;27.68;30.23;100946.56;5084360;28;20446;-69
2021/08/03 11:20:45;;;;;;;2.20;2.00;;;;;;;28.02;29.39;100941.91;5070878;28;20455;-69
2021/08/03 11:23:15;;;;;;;3.17;2.30;;;;;;;28.18;29.01;100945.34;5069536;28;20467;-69
2021/08/03 11:25:42;;;;;;;2.60;2.40;;;;;;;28.41;29.64;100953.81;5060935;28;20920;-69
2021/08/03 11:28:08;;;;;;;2.30;2.10;;;;;;;29.13;28.62;100947.50;5060980;28;20419;-68
2021/08/03 11:30:33;;;;;;;2.73;2.53;;;;;;;28.72;28.34;100941.19;5074028;28;20415;-68